Station info - map view · info · telemetry · weather · raw · status · beacons · messages · bulletins · browse · moving · my account
Callsign, ship name or locator: Clear       
It is possible to search using wildcards (*?) after a prefix. Example: OH*
APRS station DO2FAH-13 - show graphs
Map loading...
Comment: 438.925MHz Alex unterwegs mit FTM-400.QTH Dreieich OV F75
Mic-E message: En route
Location: 50°01.77' N 8°41.63' E - locator JO40IA37GB - show map - static map
1.4 miles South bearing 191° from Neu Isenburg, Hesse, Germany [?]
4.7 miles Southeast bearing 142° from Niederrad, Hesse, Germany
6.0 miles South bearing 176° from Frankfurt am Main, Regierungsbezirk Darmstadt, Hesse, Germany
85.4 miles Southeast bearing 124° from Bonn, North Rhine-Westphalia, Germany
Last position: 2017-01-16 04:31:08 EST (1d 7h59m ago)
2017-01-16 10:31:08 CET local time at Neu Isenburg, Germany [?]
Altitude: 440 ft
Course:
Speed: 3 MPH
Device: Yaesu: FTM-400DR (rig)
Last path: DO2FAH-13>UP0QW7 via WIDE1-1,WIDE2-1,qAR,DB0FDA (good)
Positions stored: 149785
Packet rate: 122 seconds between packets on average during 730 seconds.
Other SSIDs: DO2FAH DO2FAH-9
Stations near current position of DO2FAH-13 - show more
callsign distance last heard - EST      callsign distance last heard - EST
DO2FAH20.7 yards 0°2017-01-17 12:29:22 DG6FCS-11.5 miles 350°2016-12-23 11:12:54
DG2FAR2.0 miles 162°2017-01-07 17:47:05 DG2FAR-72.0 miles 162°2016-12-28 17:48:03
DG2FAR-52.0 miles 162°2016-12-28 13:31:43 DH2WR2.2 miles 350°2017-01-12 08:06:50
SQ3OO-142.8 miles 28°2017-01-04 19:27:45 DO1PM-13.1 miles 214°2017-01-16 06:24:57
DH1IS4.2 miles 90°2017-01-08 17:35:42 DB3FS-54.7 miles 190°2016-12-18 12:58:41
EDDF4.9 miles 273°2017-01-17 12:30:32 DF5VL5.0 miles 31°2016-12-19 07:36:33
DG6FFG5.0 miles 31°2017-01-10 15:03:25 DF0DIF-95.0 miles 30°2017-01-13 15:39:02
DB0DIF5.1 miles 31°2017-01-14 07:39:27 DG7TMH-75.1 miles 355°2017-01-15 02:30:30
DF5KC5.1 miles 242°2017-01-17 12:24:41 DF5AC5.1 miles 242°2017-01-17 12:25:30
DL0DPM5.2 miles 351°2017-01-17 12:22:47 PHUST5.3 miles 208°2017-01-17 12:20:42
Stations which heard DO2FAH-13 directly on radio –
callsign pkts first heard - EST last heard longest (tx => rx) longest at - EST
DB0KX-2 15 2017-01-08 04:59:45 2017-01-08 07:17:23 JO31KH > JO31EG 23.6 miles 268° 2017-01-08 07:17:23
DB0MI 2 2017-01-15 05:42:02 2017-01-15 06:44:13 JN49JX > JN49PS 24.9 miles 122° 2017-01-15 06:44:13
DB0MYK 8 2017-01-08 03:51:04 2017-01-08 09:02:00 JO31MA > JO30OJ 44.4 miles 169° 2017-01-08 07:37:45
DB0GV 9 2017-01-08 03:04:04 2017-01-16 02:38:20 JO40DG > JO40KD 28.6 miles 109° 2017-01-08 03:04:04
DB0KT 44 2017-01-08 02:24:16 2017-01-16 04:29:33 JO30XK > JO40PL 59.4 miles 85° 2017-01-08 03:29:37
DB0XIN 6 2017-01-08 09:43:42 2017-01-16 04:18:58 JN49IX > JN49FW 13.2 miles 260° 2017-01-15 05:19:49
DK3QA 1 2017-01-08 02:47:44 2017-01-08 02:47:44 JO40EB > JN49GU 15.0 miles 149° 2017-01-08 02:47:44
DB0OTV-2 4 2017-01-08 05:38:26 2017-01-08 07:01:02 JO31HJ > JO31HG 10.5 miles 189° 2017-01-08 05:38:26
DB0RHB 2 2017-01-08 04:56:36 2017-01-08 07:55:51 JO31JC > JO30LN 36.5 miles 170° 2017-01-08 04:56:36
DB0NY 1 2017-01-08 08:55:55 2017-01-08 08:55:55 JO30UL > JO31TB 39.9 miles 352° 2017-01-08 08:55:55
DB0BOS 21 2017-01-08 02:10:32 2017-01-15 06:46:48 JO40CF > JN49LR 45.9 miles 139° 2017-01-08 03:02:41
DB0ZAV-1 5 2017-01-08 02:27:38 2017-01-16 04:29:32 JO40CF > JO40JF 24.0 miles 95° 2017-01-08 03:02:37
DB0KOE 16 2017-01-08 04:08:30 2017-01-08 08:24:15 JO30SN > JO30LW 35.1 miles 316° 2017-01-08 08:24:15
DL8KZ 15 2017-01-08 03:55:17 2017-01-08 08:18:52 JO30MX > JO30PQ 23.2 miles 152° 2017-01-08 04:34:11
DB0UHC 16 2017-01-08 04:41:02 2017-01-08 07:30:48 JO31HJ > JO31HB 23.6 miles 185° 2017-01-08 05:25:24
DL6LJ 2 2017-01-08 05:01:38 2017-01-08 05:09:47 JO31HF > JO31MF 18.9 miles 93° 2017-01-08 05:09:47
DB0FDA 28 2017-01-08 02:25:19 2017-01-16 04:31:08 JO40CF > JN49HU 31.4 miles 146° 2017-01-08 03:02:43
DG7NFG-11 2 2017-01-15 06:44:08 2017-01-15 06:52:21 JO40JA > JN49PX 22.5 miles 94° 2017-01-15 06:52:21
DB0LDK 1 2017-01-08 03:21:51 2017-01-08 03:21:51 JO30XJ > JO40GM 25.5 miles 70° 2017-01-08 03:21:51
DF8JE-10 2 2017-01-08 05:05:17 2017-01-08 05:05:49 JO31HE > JO31ID 1.8 miles 153° 2017-01-08 05:05:49
DB0NIS-10 16 2017-01-08 04:04:28 2017-01-08 08:22:14 JO31HJ > JO30EP 53.2 miles 193° 2017-01-08 05:38:25
DB5WY-13 12 2017-01-08 03:10:07 2017-01-08 09:29:29 JO40CF > JO30XO 27.4 miles 333° 2017-01-08 09:29:29
DB0UT-10 1 2017-01-08 08:46:24 2017-01-08 08:46:24 JO30SN > JN39NR 59.1 miles 200° 2017-01-08 08:46:24
DH6KW-11 20 2017-01-15 05:39:09 2017-01-15 06:38:16 JN49KW > JN49KV 2.7 miles 174° 2017-01-15 06:38:16
DB0GIS-1 3 2017-01-08 02:42:41 2017-01-08 10:03:10 JO40GA > JO40JN 37.5 miles 17° 2017-01-08 02:42:41
DG3ACM 2 2017-01-08 04:43:49 2017-01-08 07:32:48 JO31LA > JO31ND 9.5 miles 33° 2017-01-08 04:43:49

Only position packets which were originated by the station are shown here. The range statistics show some extra long hops, because some digipeaters do not correctly add themselves to the digipeater path. Please check the raw packets.
About this site
This page shows real-time information collected from the Automatic Position Reporting System Internet network (APRS-IS). APRS is used by amateur (ham) radio operators to transmit real-time position information, weather data, telemetry and messages over the radio. A vehicle equipped with a GPS receiver, a VHF transmitter or HF transceiver and a small computer device called a tracker transmits it's location, speed and course in a small data packet, which is then received by a nearby iGate receiving site which forwards the packet on the Internet. Systems connected to the Internet can send information on the APRS-IS without a radio transmitter, or collect and display information transmitted anywhere in the world.
FAQ · Blog · Discussion group · Linking to aprs.fi · AIS sites · Service status · Database statistics · Advertising on aprs.fi · Technical details · API · Change log · Planned changes · Credits and thanks · Terms Of Service · iPhone/iPad APRS